sensor_id;sensor_type;location;lat;lon;timestamp;P1;durP1;ratioP1;P2;durP2;ratioP2
44434;SDS011;30138;20.964;105.830;2022-12-07T00:00:47;156.63;;;95.22;;
44434;SDS011;30138;20.964;105.830;2022-12-07T00:05:57;155.70;;;95.47;;
44434;SDS011;30138;20.964;105.830;2022-12-07T00:11:09;154.60;;;93.78;;
44434;SDS011;30138;20.964;105.830;2022-12-07T00:16:18;155.40;;;93.82;;
44434;SDS011;30138;20.964;105.830;2022-12-07T00:21:31;151.68;;;93.90;;
44434;SDS011;30138;20.964;105.830;2022-12-07T00:26:41;148.73;;;90.95;;
44434;SDS011;30138;20.964;105.830;2022-12-07T00:31:49;152.38;;;90.88;;
44434;SDS011;30138;20.964;105.830;2022-12-07T00:36:58;151.38;;;91.85;;
44434;SDS011;30138;20.964;105.830;2022-12-07T00:42:07;145.15;;;88.75;;
44434;SDS011;30138;20.964;105.830;2022-12-07T00:47:15;145.98;;;87.82;;
44434;SDS011;30138;20.964;105.830;2022-12-07T00:52:23;146.57;;;86.70;;
44434;SDS011;30138;20.964;105.830;2022-12-07T00:57:32;142.60;;;87.75;;
44434;SDS011;30138;20.964;105.830;2022-12-07T01:02:41;140.65;;;86.18;;
44434;SDS011;30138;20.964;105.830;2022-12-07T01:07:48;137.98;;;83.82;;
44434;SDS011;30138;20.964;105.830;2022-12-07T01:12:59;144.02;;;84.05;;
44434;SDS011;30138;20.964;105.830;2022-12-07T01:18:07;134.18;;;81.93;;
44434;SDS011;30138;20.964;105.830;2022-12-07T01:23:15;133.50;;;83.43;;
44434;SDS011;30138;20.964;105.830;2022-12-07T01:28:24;134.45;;;83.07;;
44434;SDS011;30138;20.964;105.830;2022-12-07T01:33:34;137.97;;;82.90;;
44434;SDS011;30138;20.964;105.830;2022-12-07T01:38:42;128.40;;;79.03;;
44434;SDS011;30138;20.964;105.830;2022-12-07T01:44:14;133.65;;;81.47;;
44434;SDS011;30138;20.964;105.830;2022-12-07T01:49:28;125.03;;;77.63;;
44434;SDS011;30138;20.964;105.830;2022-12-07T01:54:38;128.15;;;77.97;;
44434;SDS011;30138;20.964;105.830;2022-12-07T01:59:48;125.78;;;76.80;;
44434;SDS011;30138;20.964;105.830;2022-12-07T02:04:58;119.47;;;75.93;;
44434;SDS011;30138;20.964;105.830;2022-12-07T02:10:12;126.90;;;74.68;;
44434;SDS011;30138;20.964;105.830;2022-12-07T02:15:25;122.00;;;75.43;;
44434;SDS011;30138;20.964;105.830;2022-12-07T02:20:42;116.57;;;72.95;;
44434;SDS011;30138;20.964;105.830;2022-12-07T02:26:05;129.02;;;76.07;;
44434;SDS011;30138;20.964;105.830;2022-12-07T02:31:53;117.88;;;75.03;;
44434;SDS011;30138;20.964;105.830;2022-12-07T02:37:14;120.47;;;74.35;;
44434;SDS011;30138;20.964;105.830;2022-12-07T02:42:37;121.28;;;74.07;;
44434;SDS011;30138;20.964;105.830;2022-12-07T02:47:53;123.70;;;74.68;;
44434;SDS011;30138;20.964;105.830;2022-12-07T02:53:04;120.75;;;72.72;;
44434;SDS011;30138;20.964;105.830;2022-12-07T02:58:39;111.88;;;70.88;;
44434;SDS011;30138;20.964;105.830;2022-12-07T03:04:02;124.80;;;74.40;;
44434;SDS011;30138;20.964;105.830;2022-12-07T03:09:20;126.90;;;74.78;;
44434;SDS011;30138;20.964;105.830;2022-12-07T03:14:37;128.93;;;73.78;;
44434;SDS011;30138;20.964;105.830;2022-12-07T03:19:51;127.50;;;73.97;;
44434;SDS011;30138;20.964;105.830;2022-12-07T03:25:04;118.50;;;72.97;;
44434;SDS011;30138;20.964;105.830;2022-12-07T03:30:16;124.38;;;73.90;;
44434;SDS011;30138;20.964;105.830;2022-12-07T03:35:27;119.25;;;74.82;;
44434;SDS011;30138;20.964;105.830;2022-12-07T03:40:39;134.32;;;76.47;;
44434;SDS011;30138;20.964;105.830;2022-12-07T03:45:53;117.18;;;72.78;;
44434;SDS011;30138;20.964;105.830;2022-12-07T03:51:20;112.05;;;70.72;;
44434;SDS011;30138;20.964;105.830;2022-12-07T03:56:36;129.27;;;76.18;;
44434;SDS011;30138;20.964;105.830;2022-12-07T04:06:59;133.05;;;79.22;;
44434;SDS011;30138;20.964;105.830;2022-12-07T04:12:07;134.57;;;82.18;;
44434;SDS011;30138;20.964;105.830;2022-12-07T04:17:15;130.25;;;79.25;;
44434;SDS011;30138;20.964;105.830;2022-12-07T04:22:25;137.80;;;80.57;;
44434;SDS011;30138;20.964;105.830;2022-12-07T04:27:33;134.13;;;81.20;;
44434;SDS011;30138;20.964;105.830;2022-12-07T04:32:42;138.30;;;79.68;;
44434;SDS011;30138;20.964;105.830;2022-12-07T04:37:53;139.40;;;81.57;;
44434;SDS011;30138;20.964;105.830;2022-12-07T04:43:01;130.18;;;79.15;;
44434;SDS011;30138;20.964;105.830;2022-12-07T04:48:08;136.57;;;82.03;;
44434;SDS011;30138;20.964;105.830;2022-12-07T04:53:22;136.23;;;84.32;;
44434;SDS011;30138;20.964;105.830;2022-12-07T04:58:36;146.85;;;82.85;;
44434;SDS011;30138;20.964;105.830;2022-12-07T05:03:44;132.63;;;81.90;;
44434;SDS011;30138;20.964;105.830;2022-12-07T05:08:57;140.63;;;83.68;;
44434;SDS011;30138;20.964;105.830;2022-12-07T05:14:08;135.50;;;81.40;;
44434;SDS011;30138;20.964;105.830;2022-12-07T05:19:21;133.93;;;82.50;;
44434;SDS011;30138;20.964;105.830;2022-12-07T05:24:31;137.00;;;82.20;;
44434;SDS011;30138;20.964;105.830;2022-12-07T05:29:42;144.80;;;84.38;;
44434;SDS011;30138;20.964;105.830;2022-12-07T05:34:50;126.43;;;76.90;;
44434;SDS011;30138;20.964;105.830;2022-12-07T05:40:00;149.60;;;84.43;;
44434;SDS011;30138;20.964;105.830;2022-12-07T05:45:09;137.93;;;83.47;;
44434;SDS011;30138;20.964;105.830;2022-12-07T05:50:17;141.98;;;82.03;;
44434;SDS011;30138;20.964;105.830;2022-12-07T05:55:42;129.50;;;79.28;;
44434;SDS011;30138;20.964;105.830;2022-12-07T06:00:59;138.02;;;82.40;;
44434;SDS011;30138;20.964;105.830;2022-12-07T06:06:07;133.90;;;79.07;;
44434;SDS011;30138;20.964;105.830;2022-12-07T06:11:18;135.57;;;80.25;;
44434;SDS011;30138;20.964;105.830;2022-12-07T06:16:43;139.30;;;81.47;;
44434;SDS011;30138;20.964;105.830;2022-12-07T06:21:50;136.73;;;80.28;;
44434;SDS011;30138;20.964;105.830;2022-12-07T06:27:00;136.93;;;80.10;;
44434;SDS011;30138;20.964;105.830;2022-12-07T06:32:07;132.75;;;80.00;;
44434;SDS011;30138;20.964;105.830;2022-12-07T06:37:15;134.50;;;79.20;;
44434;SDS011;30138;20.964;105.830;2022-12-07T06:42:25;124.53;;;77.68;;
44434;SDS011;30138;20.964;105.830;2022-12-07T06:47:34;130.70;;;77.00;;
44434;SDS011;30138;20.964;105.830;2022-12-07T06:52:45;127.40;;;74.93;;
44434;SDS011;30138;20.964;105.830;2022-12-07T06:57:54;125.13;;;74.97;;
44434;SDS011;30138;20.964;105.830;2022-12-07T07:03:03;122.38;;;74.13;;
44434;SDS011;30138;20.964;105.830;2022-12-07T07:08:11;126.82;;;74.13;;
44434;SDS011;30138;20.964;105.830;2022-12-07T07:13:23;126.43;;;74.18;;
44434;SDS011;30138;20.964;105.830;2022-12-07T07:18:31;123.03;;;72.70;;
44434;SDS011;30138;20.964;105.830;2022-12-07T07:23:39;119.53;;;71.97;;
44434;SDS011;30138;20.964;105.830;2022-12-07T07:28:51;123.55;;;74.47;;
44434;SDS011;30138;20.964;105.830;2022-12-07T07:33:58;128.07;;;73.68;;
44434;SDS011;30138;20.964;105.830;2022-12-07T07:39:06;112.20;;;69.30;;
44434;SDS011;30138;20.964;105.830;2022-12-07T07:44:17;114.38;;;69.50;;
44434;SDS011;30138;20.964;105.830;2022-12-07T07:49:25;116.47;;;71.30;;
44434;SDS011;30138;20.964;105.830;2022-12-07T07:54:33;113.65;;;67.03;;
44434;SDS011;30138;20.964;105.830;2022-12-07T07:59:44;112.82;;;67.72;;
44434;SDS011;30138;20.964;105.830;2022-12-07T08:04:51;117.45;;;70.72;;
44434;SDS011;30138;20.964;105.830;2022-12-07T08:09:59;121.03;;;70.65;;
44434;SDS011;30138;20.964;105.830;2022-12-07T08:15:09;120.88;;;69.97;;
44434;SDS011;30138;20.964;105.830;2022-12-07T08:20:16;110.43;;;67.15;;
44434;SDS011;30138;20.964;105.830;2022-12-07T08:25:25;116.88;;;67.95;;
44434;SDS011;30138;20.964;105.830;2022-12-07T08:30:36;114.95;;;67.97;;
44434;SDS011;30138;20.964;105.830;2022-12-07T08:35:44;115.18;;;67.35;;
44434;SDS011;30138;20.964;105.830;2022-12-07T08:40:54;118.07;;;67.03;;
44434;SDS011;30138;20.964;105.830;2022-12-07T08:46:06;110.80;;;67.50;;
44434;SDS011;30138;20.964;105.830;2022-12-07T08:51:16;119.82;;;67.03;;
44434;SDS011;30138;20.964;105.830;2022-12-07T08:56:25;116.22;;;66.80;;
44434;SDS011;30138;20.964;105.830;2022-12-07T09:01:34;113.22;;;67.80;;
44434;SDS011;30138;20.964;105.830;2022-12-07T09:06:42;111.65;;;66.13;;
44434;SDS011;30138;20.964;105.830;2022-12-07T09:11:53;110.50;;;66.18;;
44434;SDS011;30138;20.964;105.830;2022-12-07T09:17:07;117.78;;;69.70;;
44434;SDS011;30138;20.964;105.830;2022-12-07T09:27:47;120.85;;;72.22;;
44434;SDS011;30138;20.964;105.830;2022-12-07T09:33:07;114.65;;;68.53;;
44434;SDS011;30138;20.964;105.830;2022-12-07T09:38:15;115.70;;;67.03;;
44434;SDS011;30138;20.964;105.830;2022-12-07T09:43:26;119.00;;;69.83;;
44434;SDS011;30138;20.964;105.830;2022-12-07T09:48:36;117.35;;;69.18;;
44434;SDS011;30138;20.964;105.830;2022-12-07T09:53:46;120.88;;;70.53;;
44434;SDS011;30138;20.964;105.830;2022-12-07T09:58:58;123.72;;;71.80;;
44434;SDS011;30138;20.964;105.830;2022-12-07T10:04:11;131.75;;;74.07;;
44434;SDS011;30138;20.964;105.830;2022-12-07T10:09:21;128.38;;;74.15;;
44434;SDS011;30138;20.964;105.830;2022-12-07T10:14:31;129.75;;;75.78;;
44434;SDS011;30138;20.964;105.830;2022-12-07T10:19:42;124.97;;;73.53;;
44434;SDS011;30138;20.964;105.830;2022-12-07T10:24:51;128.25;;;74.78;;
44434;SDS011;30138;20.964;105.830;2022-12-07T10:30:00;127.22;;;75.00;;
44434;SDS011;30138;20.964;105.830;2022-12-07T10:35:23;129.68;;;75.95;;
44434;SDS011;30138;20.964;105.830;2022-12-07T10:40:36;131.18;;;78.32;;
44434;SDS011;30138;20.964;105.830;2022-12-07T10:45:53;135.23;;;76.07;;
44434;SDS011;30138;20.964;105.830;2022-12-07T10:51:25;146.57;;;82.97;;
44434;SDS011;30138;20.964;105.830;2022-12-07T10:57:03;131.13;;;77.13;;
44434;SDS011;30138;20.964;105.830;2022-12-07T11:02:35;136.40;;;78.32;;
44434;SDS011;30138;20.964;105.830;2022-12-07T11:08:34;139.77;;;80.55;;
44434;SDS011;30138;20.964;105.830;2022-12-07T11:14:01;128.25;;;77.18;;
44434;SDS011;30138;20.964;105.830;2022-12-07T11:19:26;140.40;;;79.88;;
44434;SDS011;30138;20.964;105.830;2022-12-07T11:24:56;146.88;;;85.75;;
44434;SDS011;30138;20.964;105.830;2022-12-07T11:30:25;139.65;;;79.78;;
44434;SDS011;30138;20.964;105.830;2022-12-07T11:35:46;151.07;;;83.30;;
44434;SDS011;30138;20.964;105.830;2022-12-07T11:41:09;153.98;;;84.15;;
44434;SDS011;30138;20.964;105.830;2022-12-07T11:46:16;148.63;;;84.10;;
44434;SDS011;30138;20.964;105.830;2022-12-07T11:56:39;162.20;;;85.95;;
44434;SDS011;30138;20.964;105.830;2022-12-07T12:01:50;159.37;;;90.77;;
44434;SDS011;30138;20.964;105.830;2022-12-07T12:07:03;146.25;;;86.03;;
44434;SDS011;30138;20.964;105.830;2022-12-07T12:23:55;166.73;;;90.28;;
44434;SDS011;30138;20.964;105.830;2022-12-07T12:29:18;142.10;;;84.88;;
44434;SDS011;30138;20.964;105.830;2022-12-07T12:34:37;157.02;;;89.68;;
44434;SDS011;30138;20.964;105.830;2022-12-07T12:45:52;151.00;;;87.22;;
44434;SDS011;30138;20.964;105.830;2022-12-07T13:04:34;162.50;;;90.45;;
44434;SDS011;30138;20.964;105.830;2022-12-07T13:09:58;142.73;;;83.93;;
44434;SDS011;30138;20.964;105.830;2022-12-07T13:15:19;146.25;;;88.18;;
44434;SDS011;30138;20.964;105.830;2022-12-07T13:20:43;145.07;;;86.65;;
44434;SDS011;30138;20.964;105.830;2022-12-07T13:26:12;149.30;;;85.78;;
44434;SDS011;30138;20.964;105.830;2022-12-07T13:36:43;149.23;;;87.60;;
44434;SDS011;30138;20.964;105.830;2022-12-07T13:41:52;149.48;;;88.75;;
44434;SDS011;30138;20.964;105.830;2022-12-07T13:47:05;145.57;;;86.25;;
44434;SDS011;30138;20.964;105.830;2022-12-07T13:52:23;157.05;;;90.65;;
44434;SDS011;30138;20.964;105.830;2022-12-07T13:57:32;156.23;;;90.50;;
44434;SDS011;30138;20.964;105.830;2022-12-07T14:02:53;153.88;;;91.50;;
44434;SDS011;30138;20.964;105.830;2022-12-07T14:08:21;154.85;;;87.72;;
44434;SDS011;30138;20.964;105.830;2022-12-07T14:13:30;147.13;;;84.82;;
44434;SDS011;30138;20.964;105.830;2022-12-07T14:18:41;148.82;;;89.70;;
44434;SDS011;30138;20.964;105.830;2022-12-07T14:29:30;144.40;;;85.40;;
44434;SDS011;30138;20.964;105.830;2022-12-07T14:34:38;143.65;;;87.53;;
44434;SDS011;30138;20.964;105.830;2022-12-07T14:39:49;142.68;;;84.60;;
44434;SDS011;30138;20.964;105.830;2022-12-07T14:44:59;139.35;;;83.05;;
44434;SDS011;30138;20.964;105.830;2022-12-07T14:50:08;137.43;;;83.75;;
44434;SDS011;30138;20.964;105.830;2022-12-07T14:55:20;144.60;;;83.45;;
44434;SDS011;30138;20.964;105.830;2022-12-07T15:00:31;131.25;;;81.97;;
44434;SDS011;30138;20.964;105.830;2022-12-07T15:05:39;134.32;;;80.55;;
44434;SDS011;30138;20.964;105.830;2022-12-07T15:10:49;134.70;;;81.82;;
44434;SDS011;30138;20.964;105.830;2022-12-07T15:15:58;134.35;;;80.70;;
44434;SDS011;30138;20.964;105.830;2022-12-07T15:21:09;123.65;;;78.05;;
44434;SDS011;30138;20.964;105.830;2022-12-07T15:26:21;139.02;;;80.00;;
44434;SDS011;30138;20.964;105.830;2022-12-07T15:31:29;124.43;;;76.30;;
44434;SDS011;30138;20.964;105.830;2022-12-07T15:42:15;121.68;;;75.43;;
44434;SDS011;30138;20.964;105.830;2022-12-07T15:47:24;116.93;;;73.93;;
44434;SDS011;30138;20.964;105.830;2022-12-07T15:52:34;127.68;;;74.50;;
44434;SDS011;30138;20.964;105.830;2022-12-07T15:57:44;125.60;;;75.53;;
44434;SDS011;30138;20.964;105.830;2022-12-07T16:02:54;116.15;;;71.47;;
44434;SDS011;30138;20.964;105.830;2022-12-07T16:08:02;116.45;;;71.78;;
44434;SDS011;30138;20.964;105.830;2022-12-07T16:13:14;120.68;;;70.90;;
44434;SDS011;30138;20.964;105.830;2022-12-07T16:18:26;115.13;;;70.18;;
44434;SDS011;30138;20.964;105.830;2022-12-07T16:23:34;113.57;;;68.22;;
44434;SDS011;30138;20.964;105.830;2022-12-07T16:28:44;111.38;;;68.20;;
44434;SDS011;30138;20.964;105.830;2022-12-07T16:33:55;108.80;;;66.43;;
44434;SDS011;30138;20.964;105.830;2022-12-07T16:39:04;100.90;;;64.35;;
44434;SDS011;30138;20.964;105.830;2022-12-07T16:44:14;104.32;;;63.05;;
44434;SDS011;30138;20.964;105.830;2022-12-07T16:49:22;110.55;;;63.78;;
44434;SDS011;30138;20.964;105.830;2022-12-07T16:54:30;104.93;;;64.47;;
44434;SDS011;30138;20.964;105.830;2022-12-07T16:59:41;111.82;;;66.07;;
44434;SDS011;30138;20.964;105.830;2022-12-07T17:04:51;109.43;;;65.38;;
44434;SDS011;30138;20.964;105.830;2022-12-07T17:09:59;106.25;;;63.95;;
44434;SDS011;30138;20.964;105.830;2022-12-07T17:15:10;104.78;;;62.67;;
44434;SDS011;30138;20.964;105.830;2022-12-07T17:20:23;102.45;;;62.33;;
44434;SDS011;30138;20.964;105.830;2022-12-07T17:25:32;106.13;;;62.78;;
44434;SDS011;30138;20.964;105.830;2022-12-07T17:30:42;104.35;;;63.13;;
44434;SDS011;30138;20.964;105.830;2022-12-07T17:35:49;104.00;;;63.42;;
44434;SDS011;30138;20.964;105.830;2022-12-07T17:40:58;107.93;;;65.35;;
44434;SDS011;30138;20.964;105.830;2022-12-07T17:46:08;106.78;;;61.90;;
44434;SDS011;30138;20.964;105.830;2022-12-07T17:51:15;109.20;;;64.65;;
44434;SDS011;30138;20.964;105.830;2022-12-07T17:56:40;105.45;;;63.63;;
44434;SDS011;30138;20.964;105.830;2022-12-07T18:01:49;103.78;;;63.08;;
44434;SDS011;30138;20.964;105.830;2022-12-07T18:06:58;105.45;;;63.13;;
44434;SDS011;30138;20.964;105.830;2022-12-07T18:12:07;106.90;;;63.95;;
44434;SDS011;30138;20.964;105.830;2022-12-07T18:17:17;112.47;;;63.92;;
44434;SDS011;30138;20.964;105.830;2022-12-07T18:22:25;113.80;;;65.28;;
44434;SDS011;30138;20.964;105.830;2022-12-07T18:27:33;110.35;;;66.60;;
44434;SDS011;30138;20.964;105.830;2022-12-07T18:32:43;116.22;;;65.00;;
44434;SDS011;30138;20.964;105.830;2022-12-07T18:37:52;109.40;;;65.30;;
44434;SDS011;30138;20.964;105.830;2022-12-07T18:43:00;106.45;;;64.05;;
44434;SDS011;30138;20.964;105.830;2022-12-07T18:48:11;112.15;;;65.60;;
44434;SDS011;30138;20.964;105.830;2022-12-07T18:53:19;107.90;;;63.13;;
44434;SDS011;30138;20.964;105.830;2022-12-07T18:58:26;103.97;;;61.13;;
44434;SDS011;30138;20.964;105.830;2022-12-07T19:03:36;110.22;;;62.08;;
44434;SDS011;30138;20.964;105.830;2022-12-07T19:08:44;108.13;;;63.88;;
44434;SDS011;30138;20.964;105.830;2022-12-07T19:13:52;107.60;;;61.88;;
44434;SDS011;30138;20.964;105.830;2022-12-07T19:19:04;109.35;;;63.00;;
44434;SDS011;30138;20.964;105.830;2022-12-07T19:24:12;109.55;;;63.28;;
44434;SDS011;30138;20.964;105.830;2022-12-07T19:29:21;105.82;;;62.67;;
44434;SDS011;30138;20.964;105.830;2022-12-07T19:34:32;106.95;;;60.80;;
44434;SDS011;30138;20.964;105.830;2022-12-07T19:39:40;105.30;;;61.70;;
44434;SDS011;30138;20.964;105.830;2022-12-07T19:44:49;106.43;;;62.38;;
44434;SDS011;30138;20.964;105.830;2022-12-07T19:49:59;102.90;;;62.58;;
44434;SDS011;30138;20.964;105.830;2022-12-07T19:55:07;103.50;;;61.65;;
44434;SDS011;30138;20.964;105.830;2022-12-07T20:00:15;107.78;;;63.58;;
44434;SDS011;30138;20.964;105.830;2022-12-07T20:05:26;114.18;;;64.43;;
44434;SDS011;30138;20.964;105.830;2022-12-07T20:10:33;108.30;;;63.23;;
44434;SDS011;30138;20.964;105.830;2022-12-07T20:15:44;114.87;;;65.10;;
44434;SDS011;30138;20.964;105.830;2022-12-07T20:20:54;109.80;;;64.15;;
44434;SDS011;30138;20.964;105.830;2022-12-07T20:26:03;120.45;;;65.25;;
44434;SDS011;30138;20.964;105.830;2022-12-07T20:31:13;117.32;;;66.32;;
44434;SDS011;30138;20.964;105.830;2022-12-07T20:36:23;112.93;;;67.50;;
44434;SDS011;30138;20.964;105.830;2022-12-07T20:41:30;108.43;;;65.15;;
44434;SDS011;30138;20.964;105.830;2022-12-07T20:46:54;115.75;;;65.25;;
44434;SDS011;30138;20.964;105.830;2022-12-07T20:52:04;115.75;;;65.78;;
44434;SDS011;30138;20.964;105.830;2022-12-07T20:57:12;112.22;;;64.32;;
44434;SDS011;30138;20.964;105.830;2022-12-07T21:02:20;109.78;;;65.25;;
44434;SDS011;30138;20.964;105.830;2022-12-07T21:07:30;113.82;;;66.25;;
44434;SDS011;30138;20.964;105.830;2022-12-07T21:12:39;108.63;;;65.00;;
44434;SDS011;30138;20.964;105.830;2022-12-07T21:17:46;115.95;;;65.35;;
44434;SDS011;30138;20.964;105.830;2022-12-07T21:22:56;111.78;;;66.40;;
44434;SDS011;30138;20.964;105.830;2022-12-07T21:28:03;116.20;;;67.60;;
44434;SDS011;30138;20.964;105.830;2022-12-07T21:33:12;111.95;;;65.53;;
44434;SDS011;30138;20.964;105.830;2022-12-07T21:38:23;117.28;;;68.22;;
44434;SDS011;30138;20.964;105.830;2022-12-07T21:43:30;115.43;;;69.32;;
44434;SDS011;30138;20.964;105.830;2022-12-07T21:48:39;118.45;;;67.65;;
44434;SDS011;30138;20.964;105.830;2022-12-07T21:53:50;116.25;;;66.43;;
44434;SDS011;30138;20.964;105.830;2022-12-07T21:58:59;113.88;;;67.90;;
44434;SDS011;30138;20.964;105.830;2022-12-07T22:04:09;118.25;;;67.45;;
44434;SDS011;30138;20.964;105.830;2022-12-07T22:09:21;117.50;;;69.78;;
44434;SDS011;30138;20.964;105.830;2022-12-07T22:14:31;121.75;;;70.45;;
44434;SDS011;30138;20.964;105.830;2022-12-07T22:19:55;120.55;;;68.53;;
44434;SDS011;30138;20.964;105.830;2022-12-07T22:25:04;115.57;;;67.53;;
44434;SDS011;30138;20.964;105.830;2022-12-07T22:30:13;120.03;;;70.23;;
44434;SDS011;30138;20.964;105.830;2022-12-07T22:35:21;123.53;;;70.68;;
44434;SDS011;30138;20.964;105.830;2022-12-07T22:40:32;115.75;;;69.07;;
44434;SDS011;30138;20.964;105.830;2022-12-07T22:45:40;117.77;;;68.07;;
44434;SDS011;30138;20.964;105.830;2022-12-07T22:50:48;114.70;;;66.55;;
44434;SDS011;30138;20.964;105.830;2022-12-07T22:55:58;120.63;;;67.47;;
44434;SDS011;30138;20.964;105.830;2022-12-07T23:01:06;112.75;;;66.30;;
44434;SDS011;30138;20.964;105.830;2022-12-07T23:06:15;119.93;;;68.95;;
44434;SDS011;30138;20.964;105.830;2022-12-07T23:11:27;114.30;;;66.57;;
44434;SDS011;30138;20.964;105.830;2022-12-07T23:16:52;114.47;;;66.43;;
44434;SDS011;30138;20.964;105.830;2022-12-07T23:22:01;118.13;;;68.03;;
44434;SDS011;30138;20.964;105.830;2022-12-07T23:27:12;120.97;;;68.65;;
44434;SDS011;30138;20.964;105.830;2022-12-07T23:32:19;115.38;;;66.60;;
44434;SDS011;30138;20.964;105.830;2022-12-07T23:37:27;117.03;;;69.28;;
44434;SDS011;30138;20.964;105.830;2022-12-07T23:42:37;120.25;;;68.15;;
44434;SDS011;30138;20.964;105.830;2022-12-07T23:47:46;114.07;;;65.88;;
44434;SDS011;30138;20.964;105.830;2022-12-07T23:52:54;112.53;;;66.55;;
44434;SDS011;30138;20.964;105.830;2022-12-07T23:58:03;112.20;;;67.32;;
